Chatsworth, California
Current Conditions -  °F | °C
As of 12:51 PM on Thursday 23 Oct 2014 (Local Time) from KVNY Reporting Station
Scattered Clouds Scattered Clouds  
Wind Chill: 88°   Ceiling: Unl
Heat Index: 88°   Visibility: 10mi
Dew Point: 41°   Wind: 7mph
Humidity: 19%   Direction: 150°SSE
Pressure: 29.97"   Gusts: NA
Location:  34.26°N, 118.6°W
Report Text: KVNY 231951Z 15006KT 10SM SCT300 31/05 A2997 RMK AO2 SLP140 T03110050
Loading
Personal Weather Stations






























Interactive Weather Map
Tropical Storm Tracking
New forecast layout! Learn more

10-Day Weather Forecast

Advertisements
Track Severe Weather on mobile